createdAt,value
2023-01-17T00:02:27.159Z,14.07
2023-01-17T00:05:13.176Z,15.13
2023-01-17T00:07:59.717Z,12.05
2023-01-17T00:10:29.891Z,13.45
2023-01-17T00:12:59.792Z,14.00
2023-01-17T00:15:29.315Z,13.15
2023-01-17T00:17:59.691Z,13.90
2023-01-17T00:20:48.963Z,12.25
2023-01-17T00:23:45.103Z,13.35
2023-01-17T00:26:19.852Z,14.68
2023-01-17T00:28:47.567Z,14.35
2023-01-17T00:31:16.489Z,13.40
2023-01-17T00:33:44.307Z,14.18
2023-01-17T00:36:11.950Z,13.40
2023-01-17T00:38:41.490Z,12.73
2023-01-17T00:41:11.664Z,13.30
2023-01-17T00:43:58.729Z,12.80
2023-01-17T00:46:48.184Z,13.50
2023-01-17T00:49:34.104Z,13.57
2023-01-17T00:52:19.878Z,15.45
2023-01-17T00:55:06.344Z,14.70
2023-01-17T00:57:54.530Z,12.60
2023-01-17T01:00:41.154Z,16.85
2023-01-17T01:03:28.925Z,14.65
2023-01-17T01:06:14.901Z,13.00
2023-01-17T01:09:00.676Z,12.77
2023-01-17T01:11:47.211Z,13.30
2023-01-17T01:14:33.407Z,14.27
2023-01-17T01:17:19.670Z,13.40
2023-01-17T01:20:05.607Z,14.38
2023-01-17T01:22:51.507Z,13.18
2023-01-17T01:25:37.175Z,12.80
2023-01-17T01:28:30.022Z,11.90
2023-01-17T01:31:21.858Z,14.50
2023-01-17T01:33:50.913Z,13.50
2023-01-17T01:36:18.026Z,15.40
2023-01-17T01:38:46.105Z,15.82
2023-01-17T01:41:13.180Z,16.40
2023-01-17T01:43:57.681Z,12.60
2023-01-17T01:46:30.402Z,13.60
2023-01-17T01:49:02.759Z,12.82
2023-01-17T01:51:38.586Z,14.70
2023-01-17T01:54:30.507Z,14.48
2023-01-17T01:57:01.528Z,12.85
2023-01-17T01:59:31.157Z,14.18
2023-01-17T02:02:00.802Z,14.93
2023-01-17T02:04:28.877Z,12.30
2023-01-17T02:07:03.152Z,14.73
2023-01-17T02:09:30.957Z,14.27
2023-01-17T02:11:58.344Z,14.05
2023-01-17T02:14:25.903Z,13.60
2023-01-17T02:17:04.007Z,13.85
2023-01-17T02:19:56.233Z,13.88
2023-01-17T02:22:53.688Z,15.18
2023-01-17T02:25:24.412Z,12.90
2023-01-17T02:28:21.545Z,15.05
2023-01-17T02:30:54.823Z,13.05
2023-01-17T02:33:37.196Z,14.35
2023-01-17T02:36:30.615Z,13.85
2023-01-17T02:39:19.824Z,13.02
2023-01-17T02:41:52.546Z,14.32
2023-01-17T02:44:21.074Z,14.32
2023-01-17T02:46:49.633Z,13.23
2023-01-17T02:49:20.544Z,14.45
2023-01-17T02:51:59.327Z,14.07
2023-01-17T02:55:23.676Z,15.88
2023-01-17T02:58:09.234Z,15.10
2023-01-17T03:00:49.052Z,14.93
2023-01-17T03:03:33.088Z,11.15
2023-01-17T03:06:11.890Z,15.63
2023-01-17T03:08:43.462Z,14.75
2023-01-17T03:11:12.682Z,13.60
2023-01-17T03:13:40.119Z,15.38
2023-01-17T03:16:21.401Z,13.65
2023-01-17T03:18:49.424Z,12.77
2023-01-17T03:21:19.715Z,13.52
2023-01-17T03:23:47.442Z,13.93
2023-01-17T03:26:14.924Z,14.50
2023-01-17T03:28:43.612Z,14.82
2023-01-17T03:31:14.933Z,13.88
2023-01-17T03:33:42.398Z,15.52
2023-01-17T03:36:10.027Z,14.68
2023-01-17T03:38:37.904Z,15.40
2023-01-17T03:41:06.829Z,13.68
2023-01-17T03:43:34.252Z,12.45
2023-01-17T03:46:18.097Z,14.35
2023-01-17T03:48:45.544Z,13.18
2023-01-17T03:51:13.143Z,14.25
2023-01-17T03:53:40.520Z,15.98
2023-01-17T03:56:07.898Z,12.73
2023-01-17T03:58:35.381Z,12.77
2023-01-17T04:01:02.661Z,12.98
2023-01-17T04:03:32.468Z,14.00
2023-01-17T04:06:01.602Z,13.32
2023-01-17T04:08:30.699Z,14.18
2023-01-17T04:10:58.105Z,14.40
2023-01-17T04:13:25.493Z,13.48
2023-01-17T04:15:53.221Z,13.52
2023-01-17T04:18:23.372Z,13.60
2023-01-17T04:20:51.653Z,13.95
2023-01-17T04:23:19.131Z,13.82
2023-01-17T04:25:49.037Z,12.48
2023-01-17T04:28:16.858Z,14.65
2023-01-17T04:30:44.051Z,13.48
2023-01-17T04:33:11.649Z,12.45
2023-01-17T04:35:41.870Z,12.93
2023-01-17T04:38:10.375Z,14.80
2023-01-17T04:40:37.513Z,13.88
2023-01-17T04:43:07.172Z,13.10
2023-01-17T04:45:34.487Z,13.52
2023-01-17T04:48:06.778Z,11.55
2023-01-17T04:50:36.526Z,13.55
2023-01-17T04:53:04.117Z,13.65
2023-01-17T04:55:32.396Z,14.48
2023-01-17T04:58:15.979Z,12.98
2023-01-17T05:00:44.188Z,14.68
2023-01-17T05:03:12.942Z,13.85
2023-01-17T05:08:22.909Z,11.68
2023-01-17T05:10:50.798Z,14.35
2023-01-17T05:13:18.856Z,12.98
2023-01-17T05:15:47.312Z,15.77
2023-01-17T05:20:46.482Z,13.65
2023-01-17T05:23:19.477Z,11.55
2023-01-17T05:25:47.845Z,13.32
2023-01-17T05:28:51.311Z,13.25
2023-01-17T05:31:18.859Z,12.68
2023-01-17T05:33:48.005Z,13.38
2023-01-17T05:36:15.898Z,12.93
2023-01-17T05:38:44.900Z,14.40
2023-01-17T05:41:29.639Z,15.10
2023-01-17T05:44:12.315Z,12.82
2023-01-17T05:46:39.928Z,14.32
2023-01-17T05:49:08.493Z,16.63
2023-01-17T05:51:37.979Z,14.20
2023-01-17T05:54:06.232Z,13.13
2023-01-17T05:59:02.820Z,14.32
2023-01-17T06:01:30.269Z,14.25
2023-01-17T06:06:38.843Z,13.00
2023-01-17T06:09:10.822Z,15.70
2023-01-17T06:11:40.104Z,14.20
2023-01-17T06:14:08.345Z,13.95
2023-01-17T06:16:38.034Z,13.93
2023-01-17T06:19:14.529Z,13.77
2023-01-17T06:21:42.445Z,15.02
2023-01-17T06:24:11.520Z,14.50
2023-01-17T06:26:40.230Z,14.32
2023-01-17T06:29:07.864Z,14.68
2023-01-17T06:31:36.489Z,14.98
2023-01-17T06:34:06.307Z,14.05
2023-01-17T06:36:55.799Z,13.88
2023-01-17T06:39:28.255Z,14.52
2023-01-17T06:41:55.295Z,16.05
2023-01-17T06:44:23.391Z,13.68
2023-01-17T06:46:56.619Z,15.07
2023-01-17T06:49:25.145Z,15.32
2023-01-17T06:51:52.330Z,14.32
2023-01-17T06:54:20.088Z,14.30
2023-01-17T07:11:12.034Z,14.77
2023-01-17T07:13:44.849Z,15.75
2023-01-17T07:16:12.966Z,18.05
2023-01-17T07:18:42.667Z,13.88
2023-01-17T07:21:16.545Z,17.05
2023-01-17T07:23:50.472Z,15.80
2023-01-17T07:26:21.347Z,14.57
2023-01-17T07:28:56.534Z,16.20
2023-01-17T07:31:23.822Z,16.95
2023-01-17T07:33:55.836Z,15.25
2023-01-17T07:36:23.049Z,16.95
2023-01-17T07:38:54.631Z,16.20
2023-01-17T07:41:25.204Z,14.52
2023-01-17T07:43:56.549Z,16.42
2023-01-17T07:52:10.335Z,12.95
2023-01-17T07:54:37.521Z,14.43
2023-01-17T07:57:05.040Z,17.85
2023-01-17T07:59:33.854Z,15.60
2023-01-17T08:04:34.822Z,13.40
2023-01-17T08:07:05.169Z,16.02
2023-01-17T08:12:30.463Z,15.32
2023-01-17T08:17:25.447Z,14.18
2023-01-17T08:19:55.658Z,15.07
2023-01-17T08:22:22.657Z,12.60
2023-01-17T08:24:49.967Z,13.13
2023-01-17T08:27:17.058Z,13.55
2023-01-17T08:29:48.399Z,12.32
2023-01-17T08:32:16.105Z,12.55
2023-01-17T08:34:57.885Z,12.77
2023-01-17T08:37:25.453Z,12.85
2023-01-17T08:39:56.845Z,13.32
2023-01-17T08:42:25.761Z,13.07
2023-01-17T08:47:39.327Z,10.27
2023-01-17T08:50:15.347Z,10.90
2023-01-17T08:52:42.685Z,11.23
2023-01-17T08:55:11.273Z,12.55
2023-01-17T08:57:38.729Z,12.50
2023-01-17T09:00:07.511Z,14.25
2023-01-17T09:02:35.874Z,12.68
2023-01-17T09:05:02.969Z,11.85
2023-01-17T09:07:30.490Z,12.15
2023-01-17T09:09:59.019Z,13.32
2023-01-17T09:12:27.717Z,12.40
2023-01-17T09:15:13.907Z,11.82
2023-01-17T09:17:41.366Z,10.35
2023-01-17T09:20:09.444Z,11.80
2023-01-17T09:22:39.118Z,10.75
2023-01-17T09:25:07.318Z,11.32
2023-01-17T09:27:34.730Z,12.65
2023-01-17T09:30:02.065Z,12.50
2023-01-17T09:32:36.808Z,13.50
2023-01-17T09:35:05.371Z,11.65
2023-01-17T09:40:00.165Z,11.63
2023-01-17T09:45:39.240Z,12.45
2023-01-17T09:48:22.216Z,12.48
2023-01-17T09:51:07.572Z,12.65
2023-01-17T09:53:39.360Z,11.30
2023-01-17T10:02:50.987Z,10.55
2023-01-17T10:05:52.556Z,11.63
2023-01-17T10:08:47.975Z,11.50
2023-01-17T10:11:30.169Z,9.10
2023-01-17T10:14:17.767Z,11.85
2023-01-17T10:17:42.363Z,9.07
2023-01-17T10:20:25.982Z,10.13
2023-01-17T10:23:38.412Z,10.02
2023-01-17T10:26:14.004Z,9.68
2023-01-17T10:28:53.571Z,10.00
2023-01-17T10:34:26.833Z,8.93
2023-01-17T10:37:31.725Z,9.35
2023-01-17T10:40:12.200Z,11.23
2023-01-17T10:43:00.941Z,9.88
2023-01-17T10:49:19.599Z,9.48
2023-01-17T10:52:13.169Z,9.00
2023-01-17T10:55:05.311Z,10.05
2023-01-17T10:57:42.905Z,8.40
2023-01-17T11:03:42.487Z,8.20
2023-01-17T11:06:31.077Z,7.90
2023-01-17T11:09:00.652Z,9.00
2023-01-17T11:11:32.041Z,8.75
2023-01-17T11:14:01.915Z,8.32
2023-01-17T11:16:31.960Z,7.57
2023-01-17T11:19:23.678Z,6.97
2023-01-17T11:21:57.856Z,7.65
2023-01-17T11:24:33.404Z,6.97
2023-01-17T11:27:01.117Z,6.70
2023-01-17T11:29:35.817Z,6.20
2023-01-17T11:32:32.624Z,5.78
2023-01-17T11:35:22.826Z,6.03
2023-01-17T11:37:57.018Z,6.10
2023-01-17T11:40:29.254Z,6.53
2023-01-17T11:43:05.156Z,5.47
2023-01-17T11:45:36.549Z,5.35
2023-01-17T11:51:01.612Z,5.25
2023-01-17T11:53:30.683Z,5.65
2023-01-17T11:56:12.231Z,5.50
2023-01-17T11:58:42.677Z,5.30
2023-01-17T12:01:21.971Z,6.10
2023-01-17T12:03:58.633Z,7.53
2023-01-17T12:06:42.134Z,5.07
2023-01-17T12:09:23.052Z,5.05
2023-01-17T12:12:30.203Z,4.90
2023-01-17T12:15:32.222Z,5.22
2023-01-17T12:18:27.162Z,5.13
2023-01-17T12:21:13.131Z,5.05
2023-01-17T12:24:02.188Z,5.13
2023-01-17T12:26:44.975Z,6.00
2023-01-17T12:29:26.084Z,5.38
2023-01-17T12:31:56.315Z,4.93
2023-01-17T12:34:51.013Z,6.10
2023-01-17T12:37:22.758Z,4.85
2023-01-17T12:46:50.285Z,3.92
2023-01-17T12:50:02.067Z,3.88
2023-01-17T12:53:05.947Z,4.25
2023-01-17T12:55:55.664Z,3.67
2023-01-17T12:58:26.065Z,4.70
2023-01-17T13:01:01.783Z,3.75
2023-01-17T13:04:22.977Z,3.90
2023-01-17T13:07:12.596Z,3.85
2023-01-17T13:09:44.927Z,3.60
2023-01-17T13:12:22.958Z,4.05
2023-01-17T13:14:50.110Z,3.95
2023-01-17T13:17:26.942Z,4.50
2023-01-17T13:20:32.053Z,4.10
2023-01-17T13:23:30.416Z,4.10
2023-01-17T13:29:09.959Z,3.35
2023-01-17T13:31:48.446Z,3.67
2023-01-17T13:34:31.069Z,4.15
2023-01-17T13:37:01.696Z,3.78
2023-01-17T13:39:38.371Z,3.70
2023-01-17T13:42:27.261Z,3.63
2023-01-17T13:44:56.550Z,4.07
2023-01-17T13:47:24.668Z,4.10
2023-01-17T13:49:56.652Z,4.20
2023-01-17T13:52:33.271Z,4.55
2023-01-17T13:55:07.424Z,3.60
2023-01-17T13:57:43.602Z,4.30
2023-01-17T14:00:21.753Z,4.88
2023-01-17T14:02:51.638Z,4.22
2023-01-17T14:05:40.531Z,4.07
2023-01-17T14:08:17.070Z,4.35
2023-01-17T14:10:50.398Z,4.32
2023-01-17T14:13:39.971Z,4.40
2023-01-17T14:19:26.114Z,4.70
2023-01-17T14:22:20.831Z,4.43
2023-01-17T14:25:12.325Z,3.63
2023-01-17T14:27:42.828Z,4.05
2023-01-17T14:30:35.005Z,5.57
2023-01-17T14:33:39.875Z,6.13
2023-01-17T14:36:15.479Z,5.53
2023-01-17T14:38:44.629Z,5.90
2023-01-17T14:44:40.663Z,7.30
2023-01-17T14:47:14.008Z,7.03
2023-01-17T14:49:41.898Z,7.03
2023-01-17T14:52:19.700Z,6.70
2023-01-17T14:54:49.679Z,7.85
2023-01-17T14:57:28.340Z,7.22
2023-01-17T15:00:21.786Z,7.18
2023-01-17T15:02:50.766Z,8.57
2023-01-17T15:05:22.134Z,7.88
2023-01-17T15:07:53.118Z,8.50
2023-01-17T15:10:25.369Z,7.90
2023-01-17T15:12:52.848Z,8.02
2023-01-17T15:15:27.848Z,7.47
2023-01-17T15:18:21.067Z,8.32
2023-01-17T15:20:58.304Z,8.02
2023-01-17T15:23:31.828Z,8.85
2023-01-17T15:26:01.072Z,8.75
2023-01-17T15:28:31.469Z,10.40
2023-01-17T15:31:09.306Z,8.88
2023-01-17T15:33:39.248Z,8.25
2023-01-17T15:36:11.998Z,9.20
2023-01-17T15:38:47.663Z,8.75
2023-01-17T15:41:17.347Z,9.38
2023-01-17T15:43:45.648Z,9.88
2023-01-17T15:46:45.564Z,10.00
2023-01-17T15:49:17.823Z,9.65
2023-01-17T15:52:18.064Z,9.77
2023-01-17T15:54:52.874Z,9.52
2023-01-17T15:57:38.836Z,9.52
2023-01-17T16:00:20.483Z,9.57
2023-01-17T16:02:55.931Z,9.95
2023-01-17T16:05:27.848Z,10.45
2023-01-17T16:08:24.127Z,7.75
2023-01-17T16:10:55.206Z,9.68
2023-01-17T16:13:22.602Z,9.90
2023-01-17T16:15:50.125Z,10.20
2023-01-17T16:18:20.672Z,9.48
2023-01-17T16:20:50.911Z,10.02
2023-01-17T16:23:19.326Z,9.90
2023-01-17T16:25:47.665Z,11.13
2023-01-17T16:28:15.213Z,11.82
2023-01-17T16:30:45.461Z,11.88
2023-01-17T16:33:24.381Z,10.02
2023-01-17T16:36:07.612Z,9.85
2023-01-17T16:38:35.654Z,9.25
2023-01-17T16:41:04.177Z,10.63
2023-01-17T16:43:31.602Z,9.43
2023-01-17T16:46:00.795Z,10.38
2023-01-17T16:48:28.089Z,8.98
2023-01-17T16:50:55.216Z,11.23
2023-01-17T16:53:28.196Z,10.32
2023-01-17T16:55:58.568Z,10.27
2023-01-17T16:58:30.859Z,10.55
2023-01-17T17:00:58.492Z,12.02
2023-01-17T17:03:26.648Z,10.38
2023-01-17T17:06:01.383Z,10.75
2023-01-17T17:08:37.994Z,9.93
2023-01-17T17:11:16.621Z,10.88
2023-01-17T17:13:50.142Z,9.77
2023-01-17T17:16:30.057Z,11.25
2023-01-17T17:19:00.466Z,10.98
2023-01-17T17:21:28.915Z,11.68
2023-01-17T17:23:58.772Z,10.02
2023-01-17T17:26:33.609Z,9.88
2023-01-17T17:29:05.426Z,10.15
2023-01-17T17:31:56.942Z,7.93
2023-01-17T17:34:28.066Z,9.13
2023-01-17T17:36:57.469Z,9.07
2023-01-17T17:39:30.983Z,9.40
2023-01-17T17:44:34.151Z,7.85
2023-01-17T17:47:01.232Z,11.07
2023-01-17T17:49:32.087Z,10.90
2023-01-17T17:52:09.479Z,12.68
2023-01-17T17:54:37.804Z,10.70
2023-01-17T17:57:04.973Z,14.13
2023-01-17T17:59:35.189Z,17.30
2023-01-17T18:02:02.415Z,13.57
2023-01-17T18:04:30.139Z,18.73
2023-01-17T18:06:58.690Z,19.70
2023-01-17T18:09:28.100Z,15.25
2023-01-17T18:11:57.205Z,18.15
2023-01-17T18:14:24.820Z,15.48
2023-01-17T18:16:52.271Z,16.42
2023-01-17T18:19:26.837Z,16.50
2023-01-17T18:21:56.438Z,15.50
2023-01-17T18:24:25.333Z,16.20
2023-01-17T18:26:56.115Z,14.82
2023-01-17T18:29:25.574Z,15.38
2023-01-17T18:31:53.866Z,15.02
2023-01-17T18:34:24.509Z,13.50
2023-01-17T18:36:52.126Z,15.25
2023-01-17T18:39:27.668Z,19.35
2023-01-17T18:41:57.375Z,17.65
2023-01-17T18:44:28.488Z,16.75
2023-01-17T18:47:04.306Z,19.25
2023-01-17T18:49:35.129Z,20.63
2023-01-17T18:52:04.780Z,21.92
2023-01-17T18:54:33.855Z,24.15
2023-01-17T18:57:07.429Z,12.40
2023-01-17T18:59:35.307Z,11.07
2023-01-17T19:02:04.839Z,12.55
2023-01-17T19:04:41.204Z,11.65
2023-01-17T19:07:13.426Z,10.68
2023-01-17T19:09:41.331Z,11.63
2023-01-17T19:12:08.487Z,11.05
2023-01-17T19:14:36.083Z,11.80
2023-01-17T19:17:03.258Z,12.45
2023-01-17T19:19:30.753Z,12.20
2023-01-17T19:22:01.039Z,10.80
2023-01-17T19:24:28.532Z,10.68
2023-01-17T19:26:55.628Z,11.20
2023-01-17T19:29:23.116Z,10.68
2023-01-17T19:31:50.207Z,10.98
2023-01-17T19:34:20.067Z,12.13
2023-01-17T19:36:47.361Z,11.35
2023-01-17T19:39:26.962Z,11.25
2023-01-17T19:41:56.986Z,10.13
2023-01-17T19:44:25.319Z,11.45
2023-01-17T19:46:52.310Z,11.77
2023-01-17T19:49:26.037Z,10.50
2023-01-17T19:51:53.111Z,15.10
2023-01-17T19:54:20.626Z,12.15
2023-01-17T19:56:49.498Z,11.20
2023-01-17T19:59:17.118Z,18.25
2023-01-17T20:01:44.284Z,10.43
2023-01-17T20:04:12.907Z,10.52
2023-01-17T20:06:40.127Z,10.63
2023-01-17T20:09:07.695Z,14.35
2023-01-17T20:11:34.966Z,12.75
2023-01-17T20:14:03.514Z,10.32
2023-01-17T20:16:35.296Z,10.15
2023-01-17T20:19:06.231Z,9.70
2023-01-17T20:21:34.527Z,10.20
2023-01-17T20:24:04.812Z,9.50
2023-01-17T20:26:44.904Z,8.68
2023-01-17T20:29:17.381Z,9.77
2023-01-17T20:31:45.184Z,10.55
2023-01-17T20:34:14.318Z,9.82
2023-01-17T20:36:42.255Z,9.65
2023-01-17T20:39:12.638Z,8.57
2023-01-17T20:41:42.243Z,9.85
2023-01-17T20:46:55.847Z,11.88
2023-01-17T20:49:23.304Z,11.65
2023-01-17T20:51:50.502Z,18.63
2023-01-17T20:54:19.725Z,16.05
2023-01-17T20:56:47.903Z,14.30
2023-01-17T20:59:20.792Z,12.88
2023-01-17T21:01:49.418Z,12.23
2023-01-17T21:04:23.589Z,10.88
2023-01-17T21:06:52.938Z,10.38
2023-01-17T21:09:30.407Z,10.40
2023-01-17T21:12:02.396Z,11.50
2023-01-17T21:14:41.877Z,12.00
2023-01-17T21:17:09.715Z,12.73
2023-01-17T21:19:37.507Z,11.32
2023-01-17T21:22:05.719Z,12.20
2023-01-17T21:27:17.226Z,11.55
2023-01-17T21:29:45.061Z,11.38
2023-01-17T21:32:14.821Z,11.48
2023-01-17T21:34:44.659Z,13.05
2023-01-17T21:37:19.061Z,13.10
2023-01-17T21:39:51.673Z,12.45
2023-01-17T21:42:19.810Z,12.88
2023-01-17T21:44:49.340Z,12.10
2023-01-17T21:47:16.383Z,12.95
2023-01-17T21:49:46.049Z,13.05
2023-01-17T21:52:13.155Z,14.07
2023-01-17T21:54:59.083Z,13.18
2023-01-17T21:57:47.679Z,14.10
2023-01-17T22:00:20.206Z,14.57
2023-01-17T22:02:49.019Z,14.10
2023-01-17T22:08:13.207Z,14.50
2023-01-17T22:10:47.096Z,14.60
2023-01-17T22:13:15.756Z,12.73
2023-01-17T22:15:44.075Z,12.52
2023-01-17T22:18:12.748Z,11.90
2023-01-17T22:20:44.627Z,11.95
2023-01-17T22:23:14.909Z,14.93
2023-01-17T22:28:13.204Z,13.65
2023-01-17T22:30:48.282Z,12.52
2023-01-17T22:33:18.635Z,14.48
2023-01-17T22:35:46.073Z,14.95
2023-01-17T22:38:13.103Z,13.07
2023-01-17T22:40:40.959Z,12.70
2023-01-17T22:43:09.228Z,15.90
2023-01-17T22:45:39.019Z,15.32
2023-01-17T22:48:06.497Z,13.27
2023-01-17T22:50:53.109Z,14.20
2023-01-17T22:53:23.006Z,15.00
2023-01-17T22:56:02.486Z,13.75
2023-01-17T22:58:30.347Z,17.00
2023-01-17T23:01:05.940Z,14.38
2023-01-17T23:03:35.600Z,14.20
2023-01-17T23:06:19.155Z,15.52
2023-01-17T23:08:49.053Z,15.48
2023-01-17T23:11:40.867Z,13.98
2023-01-17T23:14:09.736Z,14.02
2023-01-17T23:16:56.355Z,15.10
2023-01-17T23:19:36.411Z,14.43
2023-01-17T23:22:21.190Z,19.08
2023-01-17T23:24:51.322Z,19.13
2023-01-17T23:27:46.003Z,17.55
2023-01-17T23:30:20.001Z,19.08
2023-01-17T23:32:50.065Z,16.80
2023-01-17T23:35:20.015Z,16.85
2023-01-17T23:38:06.491Z,16.60
2023-01-17T23:40:35.503Z,18.30
2023-01-17T23:43:21.688Z,15.10
2023-01-17T23:45:50.478Z,15.20
2023-01-17T23:48:20.681Z,14.05
2023-01-17T23:50:48.747Z,12.52
2023-01-17T23:53:24.074Z,16.35
2023-01-17T23:55:54.035Z,13.68
2023-01-17T23:58:26.821Z,14.80
